createdAt,value
2019-03-30T00:00:35.235Z,23.03
2019-03-30T00:05:38.933Z,23.28
2019-03-30T00:10:44.204Z,23.14
2019-03-30T00:15:47.811Z,22.87
2019-03-30T00:20:51.535Z,22.79
2019-03-30T00:25:55.193Z,22.70
2019-03-30T00:30:58.923Z,22.46
2019-03-30T00:36:02.554Z,22.13
2019-03-30T00:41:06.333Z,21.84
2019-03-30T00:46:09.981Z,21.56
2019-03-30T00:51:13.913Z,21.25
2019-03-30T00:56:17.530Z,20.89
2019-03-30T01:01:21.454Z,20.34
2019-03-30T01:06:25.092Z,20.01
2019-03-30T01:11:28.774Z,19.66
2019-03-30T01:16:32.382Z,19.60
2019-03-30T01:21:36.081Z,20.35
2019-03-30T01:26:39.693Z,21.11
2019-03-30T01:31:43.672Z,21.81
2019-03-30T01:36:47.411Z,22.50
2019-03-30T01:41:51.146Z,22.74
2019-03-30T01:46:54.854Z,23.06
2019-03-30T01:51:58.592Z,22.87
2019-03-30T01:57:02.413Z,22.63
2019-03-30T02:02:06.131Z,22.48
2019-03-30T02:07:10.691Z,22.23
2019-03-30T02:12:14.423Z,21.92
2019-03-30T02:17:20.164Z,21.70
2019-03-30T02:22:23.587Z,21.43
2019-03-30T02:27:27.332Z,21.15
2019-03-30T02:32:31.121Z,20.59
2019-03-30T02:37:34.777Z,20.22
2019-03-30T02:42:38.416Z,19.77
2019-03-30T02:47:42.178Z,19.51
2019-03-30T02:52:45.854Z,19.39
2019-03-30T02:57:49.530Z,19.21
2019-03-30T03:02:53.247Z,19.05
2019-03-30T03:07:56.931Z,18.99
2019-03-30T03:13:00.593Z,18.79
2019-03-30T03:18:05.210Z,18.80
2019-03-30T03:23:08.874Z,19.45
2019-03-30T03:28:12.521Z,20.69
2019-03-30T03:33:16.189Z,21.42
2019-03-30T03:38:19.823Z,22.14
2019-03-30T03:43:23.494Z,22.50
2019-03-30T03:48:27.109Z,22.71
2019-03-30T03:53:31.163Z,22.57
2019-03-30T03:58:35.253Z,22.30
2019-03-30T04:03:39.021Z,22.20
2019-03-30T04:08:44.315Z,22.04
2019-03-30T04:13:48.002Z,21.66
2019-03-30T04:18:51.654Z,21.54
2019-03-30T04:23:55.299Z,21.25
2019-03-30T04:28:59.057Z,21.08
2019-03-30T04:34:02.813Z,20.73
2019-03-30T04:39:06.629Z,20.28
2019-03-30T04:44:10.362Z,19.60
2019-03-30T04:49:14.178Z,19.39
2019-03-30T04:54:17.905Z,19.34
2019-03-30T04:59:21.841Z,19.13
2019-03-30T05:04:25.652Z,19.37
2019-03-30T05:09:29.257Z,18.94
2019-03-30T05:14:33.189Z,18.81
2019-03-30T05:19:36.911Z,18.84
2019-03-30T05:24:40.645Z,18.86
2019-03-30T05:29:44.347Z,18.87
2019-03-30T05:34:48.063Z,19.41
2019-03-30T05:39:51.782Z,20.23
2019-03-30T05:44:57.766Z,20.82
2019-03-30T05:50:01.182Z,21.64
2019-03-30T05:55:05.613Z,22.06
2019-03-30T06:00:09.976Z,22.33
2019-03-30T06:05:13.987Z,22.63
2019-03-30T06:10:17.905Z,22.77
2019-03-30T06:15:21.627Z,22.67
2019-03-30T06:20:25.368Z,22.60
2019-03-30T06:25:31.535Z,22.54
2019-03-30T06:30:35.676Z,22.48
2019-03-30T06:35:39.615Z,22.63
2019-03-30T06:40:43.593Z,22.60
2019-03-30T06:45:47.310Z,22.45
2019-03-30T06:50:51.061Z,22.54
2019-03-30T06:55:54.683Z,22.53
2019-03-30T07:00:58.402Z,22.60
2019-03-30T07:06:02.127Z,22.61
2019-03-30T07:11:20.182Z,22.68
2019-03-30T07:16:11.741Z,22.79
2019-03-30T07:21:15.665Z,22.91
2019-03-30T07:26:19.546Z,22.88
2019-03-30T07:31:23.302Z,22.97
2019-03-30T07:36:27.013Z,23.19
2019-03-30T07:41:30.837Z,23.07
2019-03-30T07:46:34.575Z,23.11
2019-03-30T07:51:38.284Z,23.15
2019-03-30T07:56:42.009Z,23.26
2019-03-30T08:01:45.749Z,23.20
2019-03-30T08:06:49.455Z,23.23
2019-03-30T08:11:53.287Z,23.20
2019-03-30T08:16:56.998Z,23.21
2019-03-30T08:22:00.731Z,23.18
2019-03-30T08:27:05.680Z,23.18
2019-03-30T08:32:09.387Z,23.12
2019-03-30T08:37:13.971Z,23.06
2019-03-30T08:42:17.752Z,23.08
2019-03-30T08:47:21.487Z,23.07
2019-03-30T08:52:25.404Z,23.06
2019-03-30T08:57:29.134Z,23.10
2019-03-30T09:02:32.845Z,23.13
2019-03-30T09:07:36.570Z,23.13
2019-03-30T09:12:40.408Z,23.13
2019-03-30T09:17:44.102Z,23.14
2019-03-30T09:22:47.851Z,23.11
2019-03-30T09:27:51.669Z,23.07
2019-03-30T09:32:55.378Z,23.01
2019-03-30T09:37:59.245Z,22.99
2019-03-30T09:43:02.922Z,22.97
2019-03-30T09:48:19.716Z,22.96
2019-03-30T09:53:23.389Z,22.91
2019-03-30T09:58:27.094Z,22.87
2019-03-30T10:03:31.019Z,22.87
2019-03-30T10:08:34.741Z,22.88
2019-03-30T10:13:38.476Z,23.01
2019-03-30T10:18:42.198Z,23.02
2019-03-30T10:23:45.900Z,22.94
2019-03-30T10:28:49.631Z,22.61
2019-03-30T10:33:53.476Z,22.70
2019-03-30T10:38:57.184Z,22.63
2019-03-30T10:44:00.905Z,22.55
2019-03-30T10:49:05.140Z,22.50
2019-03-30T10:54:08.877Z,22.43
2019-03-30T10:59:12.600Z,22.38
2019-03-30T11:04:16.309Z,22.32
2019-03-30T11:09:20.135Z,22.26
2019-03-30T11:14:23.738Z,22.22
2019-03-30T11:19:27.476Z,22.18
2019-03-30T11:24:31.169Z,22.15
2019-03-30T11:29:34.904Z,22.13
2019-03-30T11:34:38.657Z,22.11
2019-03-30T11:39:42.339Z,22.49
2019-03-30T11:44:46.063Z,22.46
2019-03-30T11:49:49.796Z,22.61
2019-03-30T11:54:53.515Z,22.91
2019-03-30T11:59:57.236Z,23.07
2019-03-30T12:05:00.958Z,23.11
2019-03-30T12:10:06.627Z,23.11
2019-03-30T12:15:10.343Z,23.01
2019-03-30T12:20:13.996Z,23.02
2019-03-30T12:25:17.670Z,22.95
2019-03-30T12:30:21.405Z,23.00
2019-03-30T12:35:25.358Z,22.95
2019-03-30T12:40:28.963Z,22.73
2019-03-30T12:45:32.627Z,22.67
2019-03-30T12:50:36.280Z,22.62
2019-03-30T12:55:49.178Z,22.61
2019-03-30T13:00:45.475Z,22.50
2019-03-30T13:05:49.101Z,22.50
2019-03-30T13:10:52.839Z,22.43
2019-03-30T13:15:56.530Z,22.47
2019-03-30T13:21:00.368Z,22.38
2019-03-30T13:26:04.912Z,22.34
2019-03-30T13:31:08.629Z,22.40
2019-03-30T13:36:12.771Z,22.48
2019-03-30T13:41:16.407Z,22.34
2019-03-30T13:46:20.040Z,22.31
2019-03-30T13:51:23.733Z,22.25
2019-03-30T13:56:27.377Z,22.21
2019-03-30T14:01:31.009Z,22.17
2019-03-30T14:06:34.679Z,22.16
2019-03-30T14:11:38.318Z,22.32
2019-03-30T14:16:41.998Z,22.36
2019-03-30T14:21:45.602Z,22.23
2019-03-30T14:26:49.249Z,22.17
2019-03-30T14:31:52.858Z,22.15
2019-03-30T14:36:56.404Z,22.12
2019-03-30T14:42:00.005Z,22.12
2019-03-30T14:47:03.564Z,22.17
2019-03-30T14:52:07.157Z,22.31
2019-03-30T14:57:10.702Z,22.48
2019-03-30T15:02:14.247Z,22.68
2019-03-30T15:07:17.824Z,22.86
2019-03-30T15:12:21.376Z,22.93
2019-03-30T15:17:24.952Z,23.00
2019-03-30T15:22:28.505Z,23.06
2019-03-30T15:27:32.087Z,23.04
2019-03-30T15:32:35.614Z,23.01
2019-03-30T15:37:39.188Z,22.98
2019-03-30T15:42:42.765Z,22.96
2019-03-30T15:47:46.313Z,22.92
2019-03-30T15:52:49.895Z,22.88
2019-03-30T15:57:53.568Z,22.91
2019-03-30T16:02:57.188Z,23.06
2019-03-30T16:08:00.804Z,22.89
2019-03-30T16:13:04.835Z,22.92
2019-03-30T16:18:08.442Z,22.84
2019-03-30T16:23:11.978Z,22.77
2019-03-30T16:28:15.592Z,22.71
2019-03-30T16:33:19.154Z,22.65
2019-03-30T16:38:22.769Z,22.59
2019-03-30T16:43:26.322Z,22.53
2019-03-30T16:48:29.912Z,22.48
2019-03-30T16:53:33.477Z,22.53
2019-03-30T16:58:37.053Z,22.67
2019-03-30T17:03:40.614Z,22.85
2019-03-30T17:08:44.193Z,23.05
2019-03-30T17:13:47.763Z,23.12
2019-03-30T17:18:51.333Z,23.17
2019-03-30T17:23:54.905Z,23.19
2019-03-30T17:28:58.829Z,23.28
2019-03-30T17:34:02.355Z,23.10
2019-03-30T17:39:08.257Z,23.09
2019-03-30T17:44:11.790Z,22.99
2019-03-30T17:49:15.736Z,22.90
2019-03-30T17:54:19.377Z,22.85
2019-03-30T17:59:23.885Z,22.65
2019-03-30T18:04:27.739Z,22.56
2019-03-30T18:09:31.361Z,22.56
2019-03-30T18:14:34.980Z,22.45
2019-03-30T18:19:38.600Z,22.22
2019-03-30T18:24:42.361Z,22.06
2019-03-30T18:29:46.039Z,21.94
2019-03-30T18:34:49.617Z,21.79
2019-03-30T18:39:53.296Z,21.72
2019-03-30T18:44:56.902Z,21.70
2019-03-30T18:50:00.519Z,22.24
2019-03-30T18:55:06.526Z,22.59
2019-03-30T19:00:10.236Z,23.00
2019-03-30T19:05:13.759Z,23.35
2019-03-30T19:10:17.347Z,23.59
2019-03-30T19:15:20.967Z,23.51
2019-03-30T19:20:24.598Z,23.41
2019-03-30T19:25:29.880Z,23.28
2019-03-30T19:30:33.670Z,23.12
2019-03-30T19:35:37.194Z,22.95
2019-03-30T19:40:40.814Z,22.78
2019-03-30T19:45:44.434Z,22.58
2019-03-30T19:50:48.043Z,22.42
2019-03-30T19:55:51.666Z,22.64
2019-03-30T20:00:55.290Z,22.48
2019-03-30T20:05:58.908Z,22.29
2019-03-30T20:11:02.523Z,21.93
2019-03-30T20:16:06.095Z,21.77
2019-03-30T20:21:09.658Z,21.65
2019-03-30T20:26:13.235Z,21.51
2019-03-30T20:31:16.948Z,21.41
2019-03-30T20:36:20.735Z,21.33
2019-03-30T20:41:24.343Z,21.20
2019-03-30T20:46:28.288Z,21.20
2019-03-30T20:51:31.819Z,21.99
2019-03-30T20:56:35.405Z,22.61
2019-03-30T21:01:38.955Z,22.95
2019-03-30T21:06:42.546Z,23.12
2019-03-30T21:11:46.164Z,23.22
2019-03-30T21:16:49.788Z,23.29
2019-03-30T21:21:53.398Z,23.27
2019-03-30T21:26:56.977Z,23.42
2019-03-30T21:32:00.540Z,23.13
2019-03-30T21:37:05.183Z,23.04
2019-03-30T21:42:08.715Z,22.96
2019-03-30T21:47:12.324Z,22.80
2019-03-30T21:52:15.938Z,22.58
2019-03-30T21:57:19.560Z,22.35
2019-03-30T22:02:23.171Z,22.23
2019-03-30T22:07:26.750Z,22.11
2019-03-30T22:12:30.418Z,22.12
2019-03-30T22:17:33.964Z,21.30
2019-03-30T22:22:37.659Z,21.30
2019-03-30T22:27:41.293Z,21.74
2019-03-30T22:32:44.889Z,22.33
2019-03-30T22:37:48.934Z,22.75
2019-03-30T22:42:52.645Z,23.17
2019-03-30T22:47:56.266Z,23.56
2019-03-30T22:52:59.880Z,23.73
2019-03-30T22:58:03.504Z,23.55
2019-03-30T23:03:07.428Z,23.46
2019-03-30T23:08:11.046Z,23.46
2019-03-30T23:13:14.670Z,23.39
2019-03-30T23:18:18.284Z,23.66
2019-03-30T23:23:21.904Z,23.33
2019-03-30T23:28:25.528Z,22.49
2019-03-30T23:33:29.057Z,22.49
2019-03-30T23:38:32.602Z,22.29
2019-03-30T23:43:36.288Z,22.06
2019-03-30T23:48:39.918Z,21.92
2019-03-30T23:53:43.501Z,21.67
2019-03-30T23:58:47.242Z,21.32
